Time;durP1;ratioP1;P1;durP2;ratioP2;P2;SDS_P1;SDS_P2;PMS_P1;PMS_P2;Temp;Humidity;BMP_temperature;BMP_pressure;BME280_temperature;BME280_humidity;BME280_pressure;Samples;Min_cycle;Max_cycle;Signal;HPM_P1;HPM_P2
2023/07/15 00:00:28;;;;;;;10.13;4.43;;;16.10;99.90;;;;;;4382062;28;660790;-65
2023/07/15 00:03:15;;;;;;;9.37;4.67;;;16.10;99.90;;;;;;4389307;28;659687;-66
2023/07/15 00:06:05;;;;;;;8.17;4.40;;;16.10;99.90;;;;;;4406782;28;659740;-65
2023/07/15 00:08:53;;;;;;;11.33;4.90;;;16.00;99.90;;;;;;4386319;28;660035;-65
2023/07/15 00:11:41;;;;;;;8.13;4.68;;;16.00;99.90;;;;;;4384214;28;659529;-66
2023/07/15 00:14:29;;;;;;;8.17;4.67;;;15.90;99.90;;;;;;4411588;28;658240;-65
2023/07/15 00:17:18;;;;;;;9.70;4.70;;;15.90;99.90;;;;;;4389377;28;659341;-65
2023/07/15 00:20:07;;;;;;;7.83;5.03;;;15.90;99.90;;;;;;4395926;28;658852;-65
2023/07/15 00:22:55;;;;;;;8.30;4.87;;;15.90;99.90;;;;;;4403622;28;658722;-65
2023/07/15 00:25:42;;;;;;;9.50;4.70;;;15.80;99.90;;;;;;4382977;28;660066;-65
2023/07/15 00:28:29;;;;;;;9.47;5.13;;;15.80;99.90;;;;;;4409987;28;658509;-65
2023/07/15 00:31:17;;;;;;;8.07;4.57;;;15.80;99.90;;;;;;4380818;28;658836;-65
2023/07/15 00:34:06;;;;;;;9.47;4.43;;;15.70;99.90;;;;;;4407608;28;658882;-66
2023/07/15 00:36:53;;;;;;;7.90;4.73;;;15.70;99.90;;;;;;4384082;28;659185;-65
2023/07/15 00:39:40;;;;;;;10.87;5.10;;;15.70;99.90;;;;;;4394642;28;659085;-66
2023/07/15 00:42:50;;;;;;;7.27;5.20;;;15.60;99.90;;;;;;4409485;28;660815;-65
2023/07/15 00:45:37;;;;;;;7.10;4.60;;;15.60;99.90;;;;;;4390363;28;658619;-66
2023/07/15 00:48:25;;;;;;;5.70;4.40;;;15.50;99.90;;;;;;4401585;28;659214;-65
2023/07/15 00:51:13;;;;;;;7.67;4.77;;;15.50;99.90;;;;;;4385214;28;659579;-65
2023/07/15 00:54:00;;;;;;;7.57;5.00;;;15.50;99.90;;;;;;4396835;28;658365;-66
2023/07/15 00:56:48;;;;;;;8.80;4.23;;;15.40;99.90;;;;;;4412297;28;659298;-65
2023/07/15 00:59:35;;;;;;;14.63;5.17;;;15.50;99.90;;;;;;4404614;28;659125;-65
2023/07/15 01:02:23;;;;;;;15.03;4.87;;;15.60;99.90;;;;;;4407162;28;661542;-65
2023/07/15 01:05:12;;;;;;;7.50;5.40;;;15.50;99.90;;;;;;4401030;28;659675;-66
2023/07/15 01:07:59;;;;;;;10.87;5.20;;;15.50;99.90;;;;;;4406925;28;658632;-65
2023/07/15 01:10:46;;;;;;;7.40;4.63;;;15.50;99.90;;;;;;4384668;28;659761;-66
2023/07/15 01:13:33;;;;;;;5.87;4.70;;;15.50;99.90;;;;;;4405894;28;659318;-66
2023/07/15 01:16:21;;;;;;;11.20;5.03;;;15.60;99.90;;;;;;4390828;28;660170;-66
2023/07/15 01:19:08;;;;;;;11.60;4.80;;;15.60;99.90;;;;;;4409684;28;660776;-66
2023/07/15 01:21:57;;;;;;;9.00;4.70;;;15.50;99.90;;;;;;4384616;28;659733;-66
2023/07/15 01:24:45;;;;;;;11.93;5.17;;;15.60;99.90;;;;;;4412168;28;658426;-65
2023/07/15 01:27:33;;;;;;;7.60;4.93;;;15.60;99.90;;;;;;4382201;28;660932;-65
2023/07/15 01:30:21;;;;;;;12.73;5.17;;;15.50;99.90;;;;;;4389510;28;659967;-66
2023/07/15 01:33:09;;;;;;;14.97;5.17;;;15.60;99.90;;;;;;4404465;28;660095;-66
2023/07/15 01:35:56;;;;;;;8.40;5.03;;;15.50;99.90;;;;;;4390253;28;660077;-66
2023/07/15 01:38:43;;;;;;;11.73;5.00;;;15.40;99.90;;;;;;4411307;28;658621;-65
2023/07/15 01:41:32;;;;;;;9.87;4.97;;;15.50;99.90;;;;;;4381222;28;659775;-66
2023/07/15 01:44:19;;;;;;;10.57;4.73;;;15.50;99.90;;;;;;4408693;28;658431;-66
2023/07/15 01:47:06;;;;;;;6.60;4.50;;;15.50;99.90;;;;;;4388030;28;659726;-65
2023/07/15 01:49:54;;;;;;;10.17;5.23;;;15.40;99.90;;;;;;4406075;28;659061;-66
2023/07/15 01:52:41;;;;;;;10.30;5.63;;;15.40;99.90;;;;;;4384570;28;659420;-65
2023/07/15 01:55:28;;;;;;;10.07;5.30;;;15.40;99.90;;;;;;4410346;28;660089;-65
2023/07/15 01:58:17;;;;;;;7.87;5.13;;;15.50;99.90;;;;;;4380583;28;660187;-66
2023/07/15 02:01:04;;;;;;;9.20;5.30;;;15.50;99.90;;;;;;4404916;28;658775;-66
2023/07/15 02:03:52;;;;;;;10.97;5.90;;;15.40;99.90;;;;;;4386778;28;659714;-65
2023/07/15 02:06:39;;;;;;;10.63;5.77;;;15.50;99.90;;;;;;4407105;28;661662;-65
2023/07/15 02:09:26;;;;;;;12.57;6.07;;;15.40;99.90;;;;;;4382586;28;659736;-66
2023/07/15 02:12:13;;;;;;;11.17;6.27;;;15.40;99.90;;;;;;4405268;28;660269;-65
2023/07/15 02:15:02;;;;;;;10.23;6.28;;;15.40;99.90;;;;;;4379838;28;660089;-66
2023/07/15 02:17:49;;;;;;;11.47;6.13;;;15.40;99.90;;;;;;4404762;28;659874;-65
2023/07/15 02:20:38;;;;;;;10.10;5.77;;;15.40;99.90;;;;;;4378023;28;659598;-66
2023/07/15 02:23:25;;;;;;;9.87;5.40;;;15.30;99.90;;;;;;4400542;28;659645;-66
2023/07/15 02:26:12;;;;;;;10.73;6.27;;;15.30;99.90;;;;;;4411137;28;658432;-66
2023/07/15 02:28:59;;;;;;;10.07;5.97;;;15.30;99.90;;;;;;4403423;28;660769;-66
2023/07/15 02:31:48;;;;;;;13.37;6.10;;;15.20;99.90;;;;;;4375837;28;660116;-66
2023/07/15 02:34:35;;;;;;;8.75;5.60;;;15.20;99.90;;;;;;4380701;28;659284;-66
2023/07/15 02:37:22;;;;;;;12.77;5.80;;;15.10;99.90;;;;;;4407227;28;658248;-65
2023/07/15 02:40:11;;;;;;;11.23;5.80;;;15.00;99.90;;;;;;4399336;28;659846;-65
2023/07/15 02:42:58;;;;;;;9.93;5.40;;;15.00;99.90;;;;;;4403659;28;660671;-66
2023/07/15 02:45:47;;;;;;;9.23;5.60;;;14.90;99.90;;;;;;4388189;28;658772;-65
2023/07/15 02:48:35;;;;;;;11.10;6.13;;;14.90;99.90;;;;;;4403998;28;658784;-65
2023/07/15 02:51:24;;;;;;;8.63;5.40;;;14.80;99.90;;;;;;4380692;28;659923;-65
2023/07/15 02:54:11;;;;;;;7.87;5.50;;;14.80;99.90;;;;;;4382319;28;658553;-66
2023/07/15 02:56:58;;;;;;;6.73;5.30;;;14.70;99.90;;;;;;4405800;28;659171;-65
2023/07/15 02:59:45;;;;;;;8.63;5.20;;;14.70;99.90;;;;;;4387542;28;658674;-66
2023/07/15 03:02:33;;;;;;;9.03;5.50;;;14.70;99.90;;;;;;4406839;28;660007;-66
2023/07/15 03:05:22;;;;;;;7.00;5.23;;;14.70;99.90;;;;;;4399190;28;658531;-66
2023/07/15 03:08:09;;;;;;;9.83;5.70;;;14.70;99.90;;;;;;4405541;28;662445;-65
2023/07/15 03:10:56;;;;;;;8.50;5.70;;;14.70;99.90;;;;;;4385412;28;658812;-66
2023/07/15 03:13:43;;;;;;;9.93;5.77;;;14.60;99.90;;;;;;4403924;28;659665;-65
2023/07/15 03:16:30;;;;;;;8.30;5.50;;;14.60;99.90;;;;;;4387540;28;658774;-66
2023/07/15 03:19:18;;;;;;;9.87;5.43;;;14.60;99.90;;;;;;4406928;28;660102;-66
2023/07/15 03:22:07;;;;;;;7.63;5.80;;;14.60;99.90;;;;;;4382287;28;658653;-66
2023/07/15 03:24:54;;;;;;;11.53;5.93;;;14.60;99.90;;;;;;4404380;28;658294;-65
2023/07/15 03:27:42;;;;;;;10.73;5.87;;;14.60;99.90;;;;;;4384909;28;659770;-65
2023/07/15 03:30:29;;;;;;;10.07;5.87;;;14.70;99.90;;;;;;4405802;28;660525;-66
2023/07/15 03:33:16;;;;;;;11.23;5.93;;;14.70;99.90;;;;;;4384129;28;659406;-66
2023/07/15 03:36:03;;;;;;;8.07;5.97;;;14.70;99.90;;;;;;4408922;28;659484;-66
2023/07/15 03:38:52;;;;;;;9.17;5.87;;;14.80;99.90;;;;;;4382424;28;658700;-66
2023/07/15 03:41:39;;;;;;;10.37;5.97;;;14.80;99.90;;;;;;4409689;28;659334;-65
2023/07/15 03:44:26;;;;;;;8.63;5.80;;;14.80;99.90;;;;;;4385311;28;660329;-66
2023/07/15 03:47:14;;;;;;;9.43;5.77;;;14.90;99.90;;;;;;4409641;28;659075;-66
2023/07/15 03:50:01;;;;;;;11.17;6.03;;;14.90;99.90;;;;;;4387998;28;658721;-65
2023/07/15 03:52:48;;;;;;;11.20;5.93;;;15.00;99.90;;;;;;4410464;28;659490;-66
2023/07/15 03:55:37;;;;;;;8.70;5.60;;;15.10;99.90;;;;;;4381869;28;659510;-66
2023/07/15 03:58:25;;;;;;;7.03;5.30;;;15.20;99.90;;;;;;4409177;28;659461;-66
2023/07/15 04:01:13;;;;;;;8.57;5.60;;;15.30;99.90;;;;;;4415169;28;658725;-66
2023/07/15 04:04:04;;;;;;;12.27;6.60;;;15.40;99.90;;;;;;4389044;28;658773;-66
2023/07/15 04:06:51;;;;;;;8.47;5.50;;;15.40;99.90;;;;;;4386734;28;659692;-66
2023/07/15 04:09:39;;;;;;;9.87;6.17;;;15.50;99.90;;;;;;4410111;28;658648;-65
2023/07/15 04:12:27;;;;;;;11.30;6.03;;;15.60;99.90;;;;;;4384109;28;658992;-66
2023/07/15 04:15:14;;;;;;;9.30;5.60;;;15.70;99.90;;;;;;4406907;28;660253;-66
2023/07/15 04:18:02;;;;;;;10.53;6.00;;;15.80;99.90;;;;;;4388034;28;659531;-66
2023/07/15 04:20:49;;;;;;;8.63;6.10;;;15.90;99.90;;;;;;4405885;28;659884;-66
2023/07/15 04:23:36;;;;;;;7.93;6.23;;;16.10;99.90;;;;;;4391233;28;658762;-66
2023/07/15 04:26:23;;;;;;;10.30;5.70;;;16.20;99.90;;;;;;4410225;28;658122;-66
2023/07/15 04:29:12;;;;;;;7.30;5.60;;;16.30;99.90;;;;;;4388968;28;660057;-66
2023/07/15 04:31:59;;;;;;;9.40;5.23;;;16.50;99.90;;;;;;4402419;28;658907;-66
2023/07/15 04:34:50;;;;;;;9.87;5.70;;;16.60;99.90;;;;;;4384236;28;658493;-66
2023/07/15 04:37:38;;;;;;;8.53;5.80;;;16.70;99.90;;;;;;4390989;28;658658;-66
2023/07/15 04:40:26;;;;;;;6.93;5.67;;;16.80;99.90;;;;;;4389608;28;659067;-66
2023/07/15 04:43:13;;;;;;;8.83;5.30;;;17.00;99.90;;;;;;4410997;28;659745;-66
2023/07/15 04:46:02;;;;;;;8.33;5.57;;;17.10;99.90;;;;;;4393025;28;658346;-66
2023/07/15 04:48:49;;;;;;;7.37;5.20;;;17.30;99.90;;;;;;4399382;28;661866;-66
2023/07/15 04:51:36;;;;;;;11.40;4.90;;;17.50;99.90;;;;;;4389641;28;659076;-66
2023/07/15 04:54:23;;;;;;;6.67;5.03;;;17.60;99.90;;;;;;4410411;28;659060;-66
2023/07/15 04:57:11;;;;;;;14.40;5.10;;;17.80;99.90;;;;;;4386908;28;658664;-66
2023/07/15 04:59:59;;;;;;;7.97;4.97;;;17.90;99.90;;;;;;4403041;28;659789;-66
2023/07/15 05:02:49;;;;;;;6.90;4.83;;;18.10;99.90;;;;;;4387810;28;658460;-66
2023/07/15 05:05:36;;;;;;;7.87;4.50;;;18.30;99.90;;;;;;4379646;28;658727;-66
2023/07/15 05:08:23;;;;;;;7.53;4.90;;;18.40;99.90;;;;;;4405818;28;660121;-66
2023/07/15 05:11:12;;;;;;;7.23;4.33;;;18.60;99.90;;;;;;4386704;28;658965;-66
2023/07/15 05:13:59;;;;;;;5.87;4.00;;;18.70;99.90;;;;;;4404076;28;658173;-66
2023/07/15 05:16:46;;;;;;;8.10;4.30;;;18.90;99.90;;;;;;4387778;28;658609;-66
2023/07/15 05:19:35;;;;;;;7.30;4.47;;;19.10;99.90;;;;;;4408862;28;660631;-66
2023/07/15 05:22:22;;;;;;;8.40;4.33;;;19.30;99.90;;;;;;4379567;28;659271;-66
2023/07/15 05:25:10;;;;;;;10.63;4.27;;;19.40;99.90;;;;;;4402064;28;658436;-66
2023/07/15 05:27:57;;;;;;;7.27;4.23;;;19.60;99.90;;;;;;4409467;28;659336;-66
2023/07/15 05:30:45;;;;;;;7.10;4.20;;;19.80;99.90;;;;;;4406820;28;658386;-66
2023/07/15 05:33:32;;;;;;;8.90;4.40;;;19.90;99.90;;;;;;4411358;28;659102;-66
2023/07/15 05:36:22;;;;;;;8.53;3.93;;;20.10;99.90;;;;;;4389417;28;658676;-66
2023/07/15 05:39:09;;;;;;;5.33;4.10;;;20.30;99.90;;;;;;4404691;28;658449;-66
2023/07/15 05:41:56;;;;;;;5.70;4.05;;;20.40;99.90;;;;;;4384739;28;658254;-66
2023/07/15 05:44:43;;;;;;;6.13;3.67;;;20.60;99.90;;;;;;4402907;28;659204;-66
2023/07/15 05:47:30;;;;;;;6.63;4.60;;;20.70;99.90;;;;;;4389992;28;659410;-66
2023/07/15 05:50:17;;;;;;;6.53;4.07;;;20.90;99.90;;;;;;4412115;28;659055;-66
2023/07/15 05:53:07;;;;;;;6.47;4.20;;;21.00;99.90;;;;;;4401801;28;659387;-66
2023/07/15 05:55:54;;;;;;;5.97;4.20;;;21.10;99.90;;;;;;4407616;28;658980;-66
2023/07/15 05:58:41;;;;;;;5.40;4.20;;;21.30;99.90;;;;;;4383078;28;659098;-66
2023/07/15 06:01:28;;;;;;;6.30;3.93;;;21.40;99.90;;;;;;4410503;28;659965;-66
2023/07/15 06:04:15;;;;;;;7.27;4.57;;;21.60;99.90;;;;;;4388745;28;658767;-66
2023/07/15 06:07:02;;;;;;;9.97;4.27;;;21.70;99.90;;;;;;4407399;28;660208;-66
2023/07/15 06:09:52;;;;;;;9.07;4.30;;;21.80;99.90;;;;;;4403971;28;659333;-66
2023/07/15 06:12:40;;;;;;;6.07;4.70;;;22.00;99.90;;;;;;4401105;28;658855;-66
2023/07/15 06:15:27;;;;;;;8.23;4.50;;;22.20;99.90;;;;;;4381247;28;658994;-66
2023/07/15 06:18:14;;;;;;;6.10;4.20;;;22.30;99.90;;;;;;4405266;28;658255;-66
2023/07/15 06:21:01;;;;;;;9.93;4.00;;;22.40;99.90;;;;;;4383652;28;658513;-66
2023/07/15 06:23:48;;;;;;;5.70;4.30;;;22.50;99.90;;;;;;4402489;28;658885;-66
2023/07/15 06:26:37;;;;;;;8.93;3.70;;;22.70;99.90;;;;;;4382167;28;659902;-66
2023/07/15 06:29:24;;;;;;;9.73;4.27;;;22.80;99.90;;;;;;4405201;28;658795;-66
2023/07/15 06:32:12;;;;;;;11.53;4.93;;;22.80;99.90;;;;;;4383121;28;658782;-66
2023/07/15 06:34:59;;;;;;;6.03;4.37;;;23.00;99.90;;;;;;4400510;28;659326;-66
2023/07/15 06:37:47;;;;;;;9.30;4.30;;;23.10;99.90;;;;;;4382015;28;658730;-66
2023/07/15 06:40:34;;;;;;;9.57;4.67;;;23.30;99.90;;;;;;4398833;28;659417;-66
2023/07/15 06:43:23;;;;;;;6.83;4.37;;;23.30;99.90;;;;;;4387228;28;659071;-66
2023/07/15 06:46:10;;;;;;;6.85;3.95;;;23.40;99.90;;;;;;4395625;28;658662;-66
2023/07/15 06:48:57;;;;;;;10.32;4.40;;;23.60;99.90;;;;;;4405247;28;658940;-66
2023/07/15 06:51:44;;;;;;;13.07;4.47;;;23.80;99.90;;;;;;4401849;28;659611;-66
2023/07/15 06:54:32;;;;;;;9.18;4.22;;;23.80;99.90;;;;;;4382361;28;659563;-66
2023/07/15 06:57:19;;;;;;;5.53;4.00;;;24.00;99.90;;;;;;4398634;28;658661;-66
2023/07/15 07:00:09;;;;;;;6.20;3.80;;;24.10;99.90;;;;;;4381957;28;658489;-66
2023/07/15 07:02:58;;;;;;;8.48;3.92;;;24.30;99.90;;;;;;4386065;28;658543;-66
2023/07/15 07:05:46;;;;;;;6.10;4.03;;;24.40;99.90;;;;;;4382401;28;658743;-66
2023/07/15 07:08:33;;;;;;;7.18;4.05;;;24.60;99.90;;;;;;4410013;28;658929;-66
2023/07/15 07:11:20;;;;;;;5.35;4.03;;;24.60;99.90;;;;;;4393952;28;658147;-66
2023/07/15 07:14:08;;;;;;;8.45;4.03;;;24.70;99.90;;;;;;4398020;28;659304;-66
2023/07/15 07:16:57;;;;;;;4.97;3.70;;;24.90;99.90;;;;;;4395674;28;658659;-66
2023/07/15 07:19:46;;;;;;;6.13;3.92;;;25.00;99.90;;;;;;4406056;28;658534;-66
2023/07/15 07:22:33;;;;;;;4.97;4.00;;;25.10;99.90;;;;;;4386951;28;660146;-66
2023/07/15 07:25:20;;;;;;;6.93;4.15;;;25.00;99.90;;;;;;4397014;28;658283;-71
2023/07/15 07:28:07;;;;;;;6.63;3.70;;;25.20;99.90;;;;;;4402227;28;658707;-72
2023/07/15 07:30:55;;;;;;;3.95;3.55;;;25.30;99.90;;;;;;4402227;28;658412;-70
2023/07/15 07:33:44;;;;;;;5.03;3.40;;;25.50;99.90;;;;;;4404695;28;658845;-72
2023/07/15 07:36:31;;;;;;;7.30;3.00;;;25.40;99.90;;;;;;4389922;28;658394;-71
2023/07/15 07:39:18;;;;;;;5.05;3.20;;;25.50;99.90;;;;;;4399316;28;659231;-72
2023/07/15 07:42:07;;;;;;;6.70;3.40;;;25.50;99.90;;;;;;4386455;28;658174;-71
2023/07/15 07:44:55;;;;;;;4.57;3.10;;;25.40;99.90;;;;;;4402494;28;659333;-71
2023/07/15 07:47:42;;;;;;;8.75;2.80;;;25.50;99.90;;;;;;4412830;28;659474;-72
2023/07/15 07:50:32;;;;;;;5.93;3.00;;;25.60;99.90;;;;;;4406429;28;658380;-71
2023/07/15 07:53:19;;;;;;;4.57;3.38;;;25.80;99.90;;;;;;4404223;28;658646;-71
2023/07/15 07:56:10;;;;;;;4.78;3.30;;;26.00;99.90;;;;;;4382208;28;658990;-71
2023/07/15 07:58:59;;;;;;;5.18;3.40;;;26.00;99.90;;;;;;4379226;28;659033;-71
2023/07/15 08:01:47;;;;;;;5.43;2.92;;;26.20;99.90;;;;;;4386269;28;659912;-70
2023/07/15 08:04:34;;;;;;;8.45;3.08;;;26.30;99.90;;;;;;4402158;28;659009;-72
2023/07/15 08:07:22;;;;;;;9.15;3.28;;;26.30;99.90;;;;;;4387184;28;659068;-72
2023/07/15 08:10:10;;;;;;;4.60;3.53;;;26.50;99.90;;;;;;4401773;28;658652;-71
2023/07/15 08:12:57;;;;;;;7.88;3.40;;;26.30;99.90;;;;;;4400153;28;659141;-70
2023/07/15 08:15:45;;;;;;;6.68;3.63;;;26.30;99.90;;;;;;4400295;28;658687;-70
2023/07/15 08:18:32;;;;;;;4.78;3.08;;;26.30;99.90;;;;;;4409526;28;658434;-71
2023/07/15 08:21:19;;;;;;;4.07;3.25;;;26.50;99.90;;;;;;4405856;28;658444;-71
2023/07/15 08:24:08;;;;;;;4.20;2.75;;;26.20;99.90;;;;;;4387705;28;658535;-72
2023/07/15 08:26:55;;;;;;;6.93;3.25;;;26.40;99.90;;;;;;4382801;28;658330;-71
2023/07/15 08:29:42;;;;;;;4.80;3.15;;;26.40;99.90;;;;;;4402367;28;658801;-72
2023/07/15 08:32:30;;;;;;;6.80;2.75;;;26.40;99.90;;;;;;4400471;28;658907;-71
2023/07/15 08:35:17;;;;;;;4.25;2.40;;;26.60;99.90;;;;;;4404991;28;658854;-73
2023/07/15 08:38:05;;;;;;;3.65;2.90;;;26.60;99.90;;;;;;4403731;28;658868;-70
2023/07/15 08:40:54;;;;;;;6.00;2.95;;;26.40;99.60;;;;;;4410421;28;660947;-72
2023/07/15 08:43:43;;;;;;;4.85;3.13;;;26.50;99.90;;;;;;4380980;28;658968;-73
2023/07/15 08:46:31;;;;;;;9.50;3.08;;;26.50;99.90;;;;;;4387848;28;658595;-72
2023/07/15 08:49:18;;;;;;;9.52;3.40;;;26.80;99.90;;;;;;4404247;28;658437;-72
2023/07/15 08:52:06;;;;;;;3.88;2.78;;;27.00;99.90;;;;;;4387696;28;658656;-71
2023/07/15 08:54:54;;;;;;;6.53;3.15;;;27.50;99.90;;;;;;4405830;28;659912;-72
2023/07/15 08:57:43;;;;;;;10.23;2.47;;;27.70;96.80;;;;;;4385897;28;658774;-72
2023/07/15 09:00:30;;;;;;;3.17;2.55;;;27.70;99.90;;;;;;4396409;28;660688;-71
2023/07/15 09:03:18;;;;;;;6.30;2.95;;;27.90;98.30;;;;;;4399184;28;659679;-72
2023/07/15 09:06:05;;;;;;;6.97;3.22;;;28.20;97.00;;;;;;4387161;28;658565;-71
2023/07/15 09:08:53;;;;;;;4.40;2.40;;;28.50;94.80;;;;;;4402129;28;659623;-72
2023/07/15 09:11:41;;;;;;;14.63;2.55;;;28.80;91.60;;;;;;4397212;28;658761;-70
2023/07/15 09:14:29;;;;;;;6.38;2.35;;;28.00;84.70;;;;;;4407142;28;660191;-71
2023/07/15 09:17:17;;;;;;;3.50;2.50;;;27.70;83.00;;;;;;4381598;28;658534;-72
2023/07/15 09:20:13;;;;;;;4.75;2.30;;;27.60;85.10;;;;;;4396614;28;658652;-71
2023/07/15 09:23:01;;;;;;;3.17;2.33;;;27.50;79.50;;;;;;4348730;28;659125;-70
2023/07/15 09:25:53;;;;;;;3.65;2.35;;;27.60;78.00;;;;;;4406083;28;658782;-72
2023/07/15 09:28:41;;;;;;;3.33;2.08;;;27.40;85.00;;;;;;4363485;28;659885;-70
2023/07/15 09:31:30;;;;;;;6.05;2.70;;;27.80;78.30;;;;;;4405553;28;658852;-72
2023/07/15 09:34:18;;;;;;;8.73;3.53;;;27.80;75.70;;;;;;4380336;28;658965;-72
2023/07/15 09:37:05;;;;;;;7.22;2.97;;;28.30;76.70;;;;;;4377931;28;659131;-71
2023/07/15 09:39:56;;;;;;;22.58;8.13;;;28.70;77.70;;;;;;4403500;28;659217;-72
2023/07/15 09:42:50;;;;;;;4.13;2.50;;;29.10;74.50;;;;;;4377761;28;659845;-72
2023/07/15 09:45:38;;;;;;;2.80;2.00;;;29.30;75.70;;;;;;4360994;28;659574;-73
2023/07/15 09:48:30;;;;;;;13.15;3.90;;;29.60;67.00;;;;;;4388087;28;658987;-72
2023/07/15 09:51:17;;;;;;;3.67;1.90;;;29.90;75.40;;;;;;4387044;28;660432;-73
2023/07/15 09:54:05;;;;;;;2.40;2.20;;;30.00;69.30;;;;;;4395315;28;659468;-71
2023/07/15 09:56:52;;;;;;;4.43;2.60;;;30.30;62.90;;;;;;4396157;28;659541;-71
2023/07/15 09:59:44;;;;;;;3.20;2.38;;;29.90;61.20;;;;;;4403085;28;658700;-70
2023/07/15 10:02:34;;;;;;;2.97;2.20;;;29.70;58.30;;;;;;4380753;28;659890;-72
2023/07/15 10:05:22;;;;;;;4.07;2.08;;;30.10;57.90;;;;;;4386926;28;658964;-72
2023/07/15 10:08:09;;;;;;;6.38;2.08;;;30.00;59.00;;;;;;4406805;28;658731;-72
2023/07/15 10:10:57;;;;;;;3.33;2.15;;;29.70;60.70;;;;;;4383634;28;660285;-71
2023/07/15 10:13:44;;;;;;;4.15;2.63;;;29.80;65.10;;;;;;4409751;28;658047;-71
2023/07/15 10:16:33;;;;;;;2.72;2.15;;;30.20;59.80;;;;;;4386586;28;658739;-72
2023/07/15 10:19:43;;;;;;;2.65;2.28;;;30.50;61.20;;;;;;4388210;28;658615;-72
2023/07/15 10:22:35;;;;;;;4.38;2.10;;;29.80;60.40;;;;;;4372128;28;658757;-71
2023/07/15 10:25:23;;;;;;;3.13;2.00;;;29.40;58.50;;;;;;4376851;28;658809;-73
2023/07/15 10:28:12;;;;;;;4.45;2.08;;;30.10;63.50;;;;;;4399510;28;659042;-71
2023/07/15 10:31:17;;;;;;;2.63;2.00;;;30.80;65.10;;;;;;4397956;28;658615;-73
2023/07/15 10:34:04;;;;;;;3.85;2.00;;;31.40;56.70;;;;;;4386206;28;659274;-72
2023/07/15 10:36:51;;;;;;;1.90;1.77;;;31.10;53.70;;;;;;4387922;28;658820;-73
2023/07/15 10:39:40;;;;;;;5.55;2.10;;;31.20;56.20;;;;;;4396646;28;658673;-72
2023/07/15 10:42:29;;;;;;;3.53;2.20;;;30.90;51.80;;;;;;4381871;28;659997;-71
2023/07/15 10:45:16;;;;;;;2.57;2.30;;;29.70;58.00;;;;;;4388945;28;658794;-72
2023/07/15 10:48:07;;;;;;;3.72;2.10;;;30.00;56.10;;;;;;4409307;28;659744;-71
2023/07/15 10:50:56;;;;;;;3.17;1.85;;;29.90;54.40;;;;;;4388577;28;659572;-71
2023/07/15 10:53:44;;;;;;;3.85;2.20;;;29.60;55.50;;;;;;4411547;28;658462;-72
2023/07/15 10:56:32;;;;;;;2.15;1.98;;;30.00;62.60;;;;;;4393822;28;658829;-72
2023/07/15 10:59:21;;;;;;;2.67;2.10;;;30.10;54.80;;;;;;4413337;28;658694;-73
2023/07/15 11:02:10;;;;;;;4.93;2.10;;;30.50;56.70;;;;;;4380046;28;659603;-72
2023/07/15 11:04:58;;;;;;;6.45;1.92;;;30.00;55.00;;;;;;4393599;28;659744;-73
2023/07/15 11:07:45;;;;;;;5.18;2.40;;;30.10;52.50;;;;;;4394329;28;658625;-70
2023/07/15 11:10:33;;;;;;;2.63;2.10;;;30.50;59.50;;;;;;4405965;28;659064;-72
2023/07/15 11:13:22;;;;;;;3.08;2.00;;;30.80;58.20;;;;;;4387255;28;658813;-72
2023/07/15 11:16:09;;;;;;;2.67;1.92;;;31.30;56.90;;;;;;4409192;28;658787;-73
2023/07/15 11:18:56;;;;;;;2.53;1.80;;;31.20;51.80;;;;;;4392175;28;658865;-72
2023/07/15 11:21:44;;;;;;;4.22;2.15;;;30.90;51.00;;;;;;4405905;28;658844;-73
2023/07/15 11:24:31;;;;;;;2.73;2.00;;;31.00;52.10;;;;;;4386772;28;658878;-73
2023/07/15 11:27:19;;;;;;;2.70;2.00;;;31.60;52.80;;;;;;4401222;28;658991;-73
2023/07/15 11:30:09;;;;;;;6.90;2.15;;;31.40;49.30;;;;;;4385411;28;659169;-73
2023/07/15 11:32:57;;;;;;;2.53;2.00;;;31.60;51.10;;;;;;4382595;28;658498;-73
2023/07/15 11:35:45;;;;;;;3.13;2.00;;;31.70;51.70;;;;;;4416538;28;658818;-73
2023/07/15 11:38:34;;;;;;;3.50;2.20;;;31.00;48.70;;;;;;4390452;28;659601;-70
2023/07/15 11:41:22;;;;;;;2.17;1.88;;;31.30;46.40;;;;;;4385447;28;658732;-73
2023/07/15 11:44:10;;;;;;;3.70;2.05;;;31.00;47.00;;;;;;4406287;28;658705;-71
2023/07/15 11:46:59;;;;;;;3.70;2.00;;;30.90;46.70;;;;;;4391210;28;659746;-72
2023/07/15 11:49:46;;;;;;;6.73;1.97;;;30.80;49.30;;;;;;4392107;28;658878;-73
2023/07/15 11:52:40;;;;;;;7.30;2.17;;;31.40;50.20;;;;;;4397315;28;659405;-72
2023/07/15 11:55:28;;;;;;;2.72;1.70;;;31.60;51.50;;;;;;4364647;28;658499;-73
2023/07/15 11:58:42;;;;;;;3.53;1.75;;;31.40;45.80;;;;;;4395856;28;658637;-71
2023/07/15 12:01:30;;;;;;;2.72;2.03;;;31.50;48.80;;;;;;4403634;28;658399;-71
2023/07/15 12:04:20;;;;;;;3.92;2.20;;;32.00;43.30;;;;;;4409921;28;659690;-72
2023/07/15 12:07:07;;;;;;;1.90;1.67;;;31.90;44.40;;;;;;4379875;28;660197;-73
2023/07/15 12:10:07;;;;;;;5.15;1.90;;;31.00;48.60;;;;;;4412042;28;658520;-72
2023/07/15 12:12:54;;;;;;;3.17;1.83;;;31.40;45.10;;;;;;4392363;28;659525;-72
2023/07/15 12:15:41;;;;;;;5.47;2.00;;;31.50;43.80;;;;;;4392476;28;658765;-72
2023/07/15 12:18:28;;;;;;;4.97;2.10;;;30.60;45.90;;;;;;4400233;28;659851;-72
2023/07/15 12:21:17;;;;;;;5.30;2.30;;;31.10;47.90;;;;;;4380787;28;658940;-73
2023/07/15 12:24:05;;;;;;;2.88;1.95;;;31.70;50.40;;;;;;4411172;28;659274;-73
2023/07/15 12:26:52;;;;;;;3.40;2.28;;;31.10;44.60;;;;;;4389081;28;660034;-73
2023/07/15 12:29:39;;;;;;;4.07;2.10;;;31.00;46.60;;;;;;4399672;28;658343;-71
2023/07/15 12:32:26;;;;;;;4.83;2.17;;;30.70;47.50;;;;;;4389285;28;658507;-72
2023/07/15 12:35:14;;;;;;;2.70;1.98;;;30.80;48.20;;;;;;4412800;28;659218;-73
2023/07/15 12:38:02;;;;;;;4.07;2.22;;;31.00;46.30;;;;;;4388652;28;658256;-72
2023/07/15 12:40:49;;;;;;;4.97;2.55;;;30.80;48.10;;;;;;4401119;28;659038;-72
2023/07/15 12:43:38;;;;;;;4.63;2.05;;;31.30;48.40;;;;;;4392692;28;660435;-71
2023/07/15 12:46:26;;;;;;;3.67;2.10;;;31.80;46.00;;;;;;4396973;28;658685;-71
2023/07/15 12:49:13;;;;;;;2.35;2.10;;;31.70;46.70;;;;;;4404155;28;659374;-72
2023/07/15 12:52:00;;;;;;;3.10;2.10;;;31.50;46.20;;;;;;4394027;28;658517;-70
2023/07/15 12:54:49;;;;;;;2.75;2.00;;;31.10;48.00;;;;;;4408435;28;659458;-72
2023/07/15 12:57:36;;;;;;;2.58;2.30;;;31.60;51.10;;;;;;4392661;28;658611;-70
2023/07/15 13:00:23;;;;;;;2.35;2.15;;;32.20;48.90;;;;;;4406800;28;658758;-71
2023/07/15 13:03:10;;;;;;;3.40;2.20;;;31.90;45.10;;;;;;4388727;28;659076;-71
2023/07/15 13:05:58;;;;;;;3.25;2.50;;;32.20;46.40;;;;;;4410554;28;659268;-72
2023/07/15 13:08:45;;;;;;;3.40;2.25;;;32.70;46.30;;;;;;4396394;28;658812;-70
2023/07/15 13:11:34;;;;;;;4.95;2.13;;;32.80;46.10;;;;;;4415458;28;659819;-72
2023/07/15 13:14:21;;;;;;;3.58;2.30;;;33.20;45.80;;;;;;4389532;28;659769;-71
2023/07/15 13:17:08;;;;;;;2.35;2.13;;;32.20;45.50;;;;;;4410892;28;658734;-71
2023/07/15 13:19:56;;;;;;;4.13;2.03;;;31.60;46.20;;;;;;4380469;28;659182;-72
2023/07/15 13:22:43;;;;;;;4.88;2.28;;;31.90;48.20;;;;;;4418785;28;659052;-72
2023/07/15 13:25:30;;;;;;;2.22;1.98;;;32.60;46.90;;;;;;4397644;28;658389;-70
2023/07/15 13:28:19;;;;;;;2.97;1.90;;;32.90;46.50;;;;;;4401713;28;658769;-71
2023/07/15 13:31:06;;;;;;;3.63;2.10;;;33.20;45.30;;;;;;4390755;28;659243;-72
2023/07/15 13:33:53;;;;;;;6.38;2.10;;;32.80;43.40;;;;;;4409704;28;659930;-71
2023/07/15 13:36:40;;;;;;;3.75;2.30;;;32.50;43.00;;;;;;4392206;28;658591;-71
2023/07/15 13:39:35;;;;;;;5.18;2.10;;;32.00;43.00;;;;;;4398896;28;660021;-71
2023/07/15 13:42:23;;;;;;;2.53;2.03;;;32.00;44.40;;;;;;4352917;28;658943;-72
2023/07/15 13:45:12;;;;;;;2.33;1.90;;;32.60;46.10;;;;;;4399574;28;658649;-70
2023/07/15 13:47:59;;;;;;;3.70;1.80;;;32.90;45.70;;;;;;4413426;28;658329;-72
2023/07/15 13:50:46;;;;;;;3.30;2.10;;;33.10;41.80;;;;;;4380895;28;659511;-71
2023/07/15 13:53:33;;;;;;;3.75;2.22;;;33.10;46.30;;;;;;4414832;28;658993;-72
2023/07/15 13:56:20;;;;;;;2.67;2.13;;;33.20;44.90;;;;;;4391932;28;658525;-70
2023/07/15 13:59:08;;;;;;;2.92;2.20;;;33.50;43.70;;;;;;4400986;28;660002;-71
2023/07/15 14:01:57;;;;;;;2.30;1.95;;;33.60;43.30;;;;;;4393097;28;658437;-70
2023/07/15 14:04:44;;;;;;;6.13;2.08;;;33.90;43.40;;;;;;4410011;28;658550;-71
2023/07/15 14:07:31;;;;;;;2.20;1.90;;;33.90;42.30;;;;;;4394848;28;658398;-71
2023/07/15 14:10:18;;;;;;;4.18;2.28;;;33.80;41.60;;;;;;4401272;28;660263;-71
2023/07/15 14:13:05;;;;;;;2.50;2.10;;;32.60;40.70;;;;;;4391649;28;658860;-70
2023/07/15 14:15:52;;;;;;;2.63;1.98;;;32.30;42.90;;;;;;4410866;28;660291;-72
2023/07/15 14:18:42;;;;;;;4.65;2.13;;;32.80;41.90;;;;;;4407839;28;659027;-70
2023/07/15 14:21:29;;;;;;;5.07;2.00;;;32.90;43.50;;;;;;4396167;28;658567;-71